createdAt,value
2022-08-20T00:01:08.006Z,1000.4
2022-08-20T00:03:55.667Z,1000.4
2022-08-20T00:06:43.395Z,1000.4
2022-08-20T00:09:31.043Z,1000.5
2022-08-20T00:12:26.241Z,1000.5
2022-08-20T00:15:14.441Z,1000.5
2022-08-20T00:18:06.405Z,1000.5
2022-08-20T00:20:55.232Z,1000.7
2022-08-20T00:23:43.889Z,1000.7
2022-08-20T00:26:34.131Z,1000.8
2022-08-20T00:29:22.391Z,1000.9
2022-08-20T00:32:10.241Z,1000.9
2022-08-20T00:34:57.860Z,1001
2022-08-20T00:37:45.541Z,1001
2022-08-20T00:40:33.490Z,1001
2022-08-20T00:43:24.508Z,1000.9
2022-08-20T00:46:18.396Z,1000.8
2022-08-20T00:49:09.192Z,1000.8
2022-08-20T00:52:02.481Z,1000.8
2022-08-20T00:54:54.729Z,1000.8
2022-08-20T00:57:59.816Z,1000.9
2022-08-20T01:00:54.278Z,1000.8
2022-08-20T01:03:42.965Z,1000.8
2022-08-20T01:06:30.697Z,1000.9
2022-08-20T01:09:18.434Z,1001
2022-08-20T01:12:38.777Z,1000.9
2022-08-20T01:15:31.338Z,1001
2022-08-20T01:18:19.075Z,1001
2022-08-20T01:21:10.526Z,1001
2022-08-20T01:23:58.555Z,1001.1
2022-08-20T01:26:52.778Z,1001
2022-08-20T01:29:41.977Z,1001
2022-08-20T01:32:29.935Z,1001
2022-08-20T01:35:18.074Z,1000.9
2022-08-20T01:38:06.774Z,1001
2022-08-20T01:40:55.827Z,1001
2022-08-20T01:44:11.175Z,1001
2022-08-20T01:47:06.019Z,1000.9
2022-08-20T01:50:00.209Z,1000.9
2022-08-20T01:52:58.157Z,1000.8
2022-08-20T01:55:56.517Z,1000.8
2022-08-20T01:58:44.409Z,1000.8
2022-08-20T02:01:45.906Z,1000.9
2022-08-20T02:04:35.322Z,1000.9
2022-08-20T02:07:24.884Z,1000.9
2022-08-20T02:10:14.709Z,1000.9
2022-08-20T02:13:04.292Z,1000.9
2022-08-20T02:15:54.762Z,1001
2022-08-20T02:18:43.107Z,1000.9
2022-08-20T02:21:31.051Z,1000.9
2022-08-20T02:24:19.194Z,1000.8
2022-08-20T02:27:07.406Z,1000.8
2022-08-20T02:29:55.277Z,1000.8
2022-08-20T02:32:43.482Z,1000.8
2022-08-20T02:35:31.129Z,1000.8
2022-08-20T02:38:19.750Z,1000.7
2022-08-20T02:41:07.418Z,1000.7
2022-08-20T02:43:55.690Z,1000.7
2022-08-20T02:46:43.345Z,1000.7
2022-08-20T02:49:31.034Z,1000.7
2022-08-20T02:52:19.658Z,1000.6
2022-08-20T02:55:07.426Z,1000.6
2022-08-20T02:57:57.921Z,1000.5
2022-08-20T03:00:46.541Z,1000.5
2022-08-20T03:03:35.244Z,1000.5
2022-08-20T03:06:23.327Z,1000.4
2022-08-20T03:09:11.823Z,1000.4
2022-08-20T03:11:59.431Z,1000.4
2022-08-20T03:14:47.556Z,1000.4
2022-08-20T03:17:35.237Z,1000.4
2022-08-20T03:20:23.956Z,1000.5
2022-08-20T03:23:12.819Z,1000.5
2022-08-20T03:26:00.686Z,1000.5
2022-08-20T03:28:56.413Z,1000.4
2022-08-20T03:31:44.161Z,1000.3
2022-08-20T03:34:32.024Z,1000.3
2022-08-20T03:37:19.935Z,1000.3
2022-08-20T03:40:07.615Z,1000.3
2022-08-20T03:43:00.956Z,1000.3
2022-08-20T03:45:49.464Z,1000.3
2022-08-20T03:48:37.284Z,1000.3
2022-08-20T03:51:24.843Z,1000.4
2022-08-20T03:54:13.314Z,1000.5
2022-08-20T03:57:01.324Z,1000.5
2022-08-20T03:59:49.786Z,1000.5
2022-08-20T04:02:43.142Z,1000.6
2022-08-20T04:05:31.318Z,1000.5
2022-08-20T04:08:19.438Z,1000.5
2022-08-20T04:11:11.505Z,1000.5
2022-08-20T04:13:59.092Z,1000.5
2022-08-20T04:16:48.836Z,1000.5
2022-08-20T04:19:37.940Z,1000.5
2022-08-20T04:22:26.465Z,1000.4
2022-08-20T04:25:16.014Z,1000.3
2022-08-20T04:28:04.516Z,1000.2
2022-08-20T04:30:56.151Z,1000.2
2022-08-20T04:33:46.188Z,1000.3
2022-08-20T04:36:33.803Z,1000.3
2022-08-20T04:39:21.702Z,1000.3
2022-08-20T04:42:09.530Z,1000.3
2022-08-20T04:44:57.195Z,1000.3
2022-08-20T04:47:44.833Z,1000.3
2022-08-20T04:50:32.752Z,1000.2
2022-08-20T04:53:25.746Z,1000.3
2022-08-20T04:56:14.806Z,1000.3
2022-08-20T04:59:03.977Z,1000.3
2022-08-20T05:01:52.834Z,1000.3
2022-08-20T05:04:40.845Z,1000.5
2022-08-20T05:07:28.413Z,1000.4
2022-08-20T05:10:16.065Z,1000.5
2022-08-20T05:13:05.148Z,1000.5
2022-08-20T05:15:53.500Z,1000.6
2022-08-20T05:18:42.081Z,1000.7
2022-08-20T05:21:30.945Z,1000.7
2022-08-20T05:24:19.083Z,1000.7
2022-08-20T05:27:06.799Z,1000.7
2022-08-20T05:29:54.614Z,1000.7
2022-08-20T05:32:50.285Z,1000.7
2022-08-20T05:35:37.978Z,1000.7
2022-08-20T05:38:26.395Z,1000.7
2022-08-20T05:41:27.496Z,1000.7
2022-08-20T05:44:16.336Z,1000.7
2022-08-20T05:47:04.930Z,1000.8
2022-08-20T05:49:52.762Z,1000.8
2022-08-20T05:52:40.413Z,1000.8
2022-08-20T05:55:28.511Z,1001
2022-08-20T05:58:16.508Z,1001
2022-08-20T06:01:07.296Z,1000.9
2022-08-20T06:03:54.947Z,1001
2022-08-20T06:07:15.716Z,1000.9
2022-08-20T06:10:04.043Z,1001
2022-08-20T06:12:54.922Z,1001
2022-08-20T06:15:42.644Z,1001
2022-08-20T06:18:30.302Z,1001
2022-08-20T06:21:18.376Z,1001.1
2022-08-20T06:24:06.039Z,1001.2
2022-08-20T06:26:54.297Z,1001.2
2022-08-20T06:29:43.319Z,1001.3
2022-08-20T06:32:32.659Z,1001.2
2022-08-20T06:35:20.823Z,1001.2
2022-08-20T06:38:08.506Z,1001.2
2022-08-20T06:40:57.406Z,1001.1
2022-08-20T06:43:45.087Z,1001.1
2022-08-20T06:46:32.703Z,1001.2
2022-08-20T06:49:20.833Z,1001.2
2022-08-20T06:52:08.545Z,1001.2
2022-08-20T06:55:01.941Z,1001.2
2022-08-20T06:57:51.069Z,1001.2
2022-08-20T07:00:44.014Z,1001.1
2022-08-20T07:03:32.554Z,1001.1
2022-08-20T07:06:20.568Z,1001
2022-08-20T07:09:10.130Z,1001
2022-08-20T07:11:57.941Z,1001.1
2022-08-20T07:14:45.890Z,1001.1
2022-08-20T07:17:33.402Z,1001.1
2022-08-20T07:20:22.388Z,1001
2022-08-20T07:23:10.493Z,1001
2022-08-20T07:25:58.197Z,1001
2022-08-20T07:28:45.760Z,1001
2022-08-20T07:31:35.043Z,1001
2022-08-20T07:34:54.900Z,1001
2022-08-20T07:37:42.519Z,1001
2022-08-20T07:40:33.013Z,1001.1
2022-08-20T07:43:21.023Z,1001.2
2022-08-20T07:46:09.299Z,1001.2
2022-08-20T07:48:59.432Z,1001.2
2022-08-20T07:51:48.974Z,1001.2
2022-08-20T07:54:36.812Z,1001.1
2022-08-20T07:57:24.816Z,1001
2022-08-20T08:00:12.443Z,1001.2
2022-08-20T08:03:02.615Z,1001.1
2022-08-20T08:05:51.175Z,1001.1
2022-08-20T08:08:39.676Z,1001.1
2022-08-20T08:11:28.529Z,1001.1
2022-08-20T08:14:18.579Z,1001.1
2022-08-20T08:17:11.485Z,1001.1
2022-08-20T08:20:01.582Z,1001.1
2022-08-20T08:22:52.020Z,1001
2022-08-20T08:25:39.704Z,1001.1
2022-08-20T08:28:28.208Z,1001.1
2022-08-20T08:31:16.002Z,1001.2
2022-08-20T08:34:04.045Z,1001.1
2022-08-20T08:36:51.911Z,1001.1
2022-08-20T08:39:40.082Z,1001.1
2022-08-20T08:42:27.747Z,1001.2
2022-08-20T08:45:25.896Z,1001.2
2022-08-20T08:48:21.440Z,1001.2
2022-08-20T08:51:17.161Z,1001.2
2022-08-20T08:54:13.977Z,1001.1
2022-08-20T08:57:06.796Z,1001.2
2022-08-20T09:00:03.484Z,1001.2
2022-08-20T09:02:58.496Z,1001.2
2022-08-20T09:05:50.888Z,1001.3
2022-08-20T09:08:41.790Z,1001.3
2022-08-20T09:11:33.265Z,1001.3
2022-08-20T09:14:32.820Z,1001.3
2022-08-20T09:17:20.673Z,1001.3
2022-08-20T09:20:08.790Z,1001.3
2022-08-20T09:22:57.145Z,1001.3
2022-08-20T09:25:45.192Z,1001.3
2022-08-20T09:28:35.168Z,1001.4
2022-08-20T09:31:24.916Z,1001.4
2022-08-20T09:34:12.652Z,1001.3
2022-08-20T09:37:00.298Z,1001.3
2022-08-20T09:39:48.150Z,1001.3
2022-08-20T09:42:40.743Z,1001.3
2022-08-20T09:45:29.209Z,1001.3
2022-08-20T09:48:16.943Z,1001.3
2022-08-20T09:51:05.108Z,1001.3
2022-08-20T09:53:52.909Z,1001.4
2022-08-20T09:56:40.647Z,1001.3
2022-08-20T09:59:28.330Z,1001.2
2022-08-20T10:02:18.231Z,1001.3
2022-08-20T10:05:06.003Z,1001.2
2022-08-20T10:07:57.015Z,1001.2
2022-08-20T10:10:44.878Z,1001.3
2022-08-20T10:13:32.447Z,1001.2
2022-08-20T10:16:20.269Z,1001.2
2022-08-20T10:19:07.902Z,1001.2
2022-08-20T10:21:55.579Z,1001.2
2022-08-20T10:24:44.719Z,1001.2
2022-08-20T10:27:32.378Z,1001.1
2022-08-20T10:30:20.021Z,1001.2
2022-08-20T10:33:08.234Z,1001.2
2022-08-20T10:35:59.932Z,1001.2
2022-08-20T10:38:52.336Z,1001.1
2022-08-20T10:41:40.051Z,1001.1
2022-08-20T10:44:27.748Z,1001.2
2022-08-20T10:47:15.333Z,1001.2
2022-08-20T10:50:07.702Z,1001.2
2022-08-20T10:52:58.805Z,1001.2
2022-08-20T10:55:46.383Z,1001.1
2022-08-20T10:58:39.405Z,1001
2022-08-20T11:01:32.591Z,1001
2022-08-20T11:04:21.768Z,1001
2022-08-20T11:07:09.337Z,1001
2022-08-20T11:10:00.017Z,1001
2022-08-20T11:12:49.591Z,1001.1
2022-08-20T11:15:37.773Z,1001.1
2022-08-20T11:18:28.017Z,1001.1
2022-08-20T11:21:16.249Z,1001.1
2022-08-20T11:24:04.373Z,1001.2
2022-08-20T11:26:52.290Z,1001.1
2022-08-20T11:29:40.063Z,1001.1
2022-08-20T11:32:29.792Z,1001.1
2022-08-20T11:35:41.733Z,1001.1
2022-08-20T11:38:30.986Z,1001.1
2022-08-20T11:41:19.066Z,1001.1
2022-08-20T11:44:20.669Z,1001.3
2022-08-20T11:47:09.295Z,1001.3
2022-08-20T11:50:07.195Z,1001.2
2022-08-20T11:52:58.088Z,1001.3
2022-08-20T11:55:46.368Z,1001.2
2022-08-20T11:58:35.779Z,1001.2
2022-08-20T12:01:23.396Z,1001.2
2022-08-20T12:04:11.048Z,1001.2
2022-08-20T12:06:58.719Z,1001.1
2022-08-20T12:09:57.699Z,1001.2
2022-08-20T12:12:45.535Z,1001.1
2022-08-20T12:15:33.226Z,1001.1
2022-08-20T12:18:22.439Z,1001.1
2022-08-20T12:21:14.792Z,1001.1
2022-08-20T12:24:02.967Z,1001
2022-08-20T12:26:51.032Z,1001
2022-08-20T12:29:38.562Z,1001.1
2022-08-20T12:32:28.737Z,1001
2022-08-20T12:35:17.524Z,1001.1
2022-08-20T12:38:06.418Z,1000.9
2022-08-20T12:40:54.332Z,1000.9
2022-08-20T12:43:42.123Z,1000.9
2022-08-20T12:46:29.709Z,1000.9
2022-08-20T12:49:17.333Z,1000.8
2022-08-20T12:52:05.442Z,1000.7
2022-08-20T12:54:54.129Z,1000.6
2022-08-20T12:57:42.768Z,1000.7
2022-08-20T13:00:33.333Z,1000.6
2022-08-20T13:03:23.682Z,1000.6
2022-08-20T13:06:11.432Z,1000.6
2022-08-20T13:08:59.065Z,1000.5
2022-08-20T13:11:46.758Z,1000.5
2022-08-20T13:14:34.294Z,1000.5
2022-08-20T13:17:31.831Z,1000.4
2022-08-20T13:20:27.020Z,1000.4
2022-08-20T13:23:23.024Z,1000.4
2022-08-20T13:26:10.705Z,1000.4
2022-08-20T13:28:58.741Z,1000.4
2022-08-20T13:31:48.457Z,1000.4
2022-08-20T13:34:36.489Z,1000.4
2022-08-20T13:37:25.480Z,1000.3
2022-08-20T13:40:15.202Z,1000.4
2022-08-20T13:43:06.814Z,1000.5
2022-08-20T13:45:55.186Z,1000.4
2022-08-20T13:48:42.866Z,1000.5
2022-08-20T13:51:30.683Z,1000.5
2022-08-20T13:54:18.600Z,1000.5
2022-08-20T13:57:06.365Z,1000.5
2022-08-20T13:59:57.749Z,1000.5
2022-08-20T14:02:45.532Z,1000.5
2022-08-20T14:05:33.168Z,1000.5
2022-08-20T14:08:21.825Z,1000.4
2022-08-20T14:11:09.995Z,1000.4
2022-08-20T14:14:03.970Z,1000.3
2022-08-20T14:16:51.549Z,1000.4
2022-08-20T14:19:39.681Z,1000.4
2022-08-20T14:22:27.416Z,1000.3
2022-08-20T14:25:15.828Z,1000.4
2022-08-20T14:28:06.163Z,1000.4
2022-08-20T14:30:57.069Z,1000.4
2022-08-20T14:33:45.439Z,1000.3
2022-08-20T14:36:33.113Z,1000.4
2022-08-20T14:39:20.776Z,1000.4
2022-08-20T14:42:09.164Z,1000.3
2022-08-20T14:44:57.605Z,1000.4
2022-08-20T14:47:49.724Z,1000.3
2022-08-20T14:50:42.032Z,1000.4
2022-08-20T14:53:29.897Z,1000.4
2022-08-20T14:56:19.280Z,1000.4
2022-08-20T14:59:06.852Z,1000.3
2022-08-20T15:01:54.605Z,1000.4
2022-08-20T15:04:44.743Z,1000.4
2022-08-20T15:07:40.018Z,1000.4
2022-08-20T15:10:29.584Z,1000.5
2022-08-20T15:13:19.040Z,1000.7
2022-08-20T15:16:06.748Z,1000.8
2022-08-20T15:18:54.418Z,1001.1
2022-08-20T15:21:48.243Z,1001
2022-08-20T15:24:35.934Z,1001.1
2022-08-20T15:27:23.579Z,1001.2
2022-08-20T15:30:12.025Z,1001.3
2022-08-20T15:33:03.431Z,1001.2
2022-08-20T15:35:51.641Z,1001.1
2022-08-20T15:38:39.496Z,1001
2022-08-20T15:41:27.377Z,1000.9
2022-08-20T15:44:16.938Z,1000.9
2022-08-20T15:47:05.157Z,1000.8
2022-08-20T15:50:09.262Z,1000.7
2022-08-20T15:53:12.708Z,1000.6
2022-08-20T15:56:08.849Z,1000.7
2022-08-20T15:59:10.172Z,1000.9
2022-08-20T16:02:13.021Z,1001.1
2022-08-20T16:05:17.029Z,1001.2
2022-08-20T16:08:09.986Z,1001.2
2022-08-20T16:11:08.998Z,1001.3
2022-08-20T16:14:07.462Z,1001.5
2022-08-20T16:17:01.686Z,1001.6
2022-08-20T16:19:52.846Z,1001.6
2022-08-20T16:22:48.850Z,1001.6
2022-08-20T16:25:36.994Z,1001.6
2022-08-20T16:28:36.480Z,1001.3
2022-08-20T16:31:34.449Z,1001.1
2022-08-20T16:34:35.288Z,1001.2
2022-08-20T16:37:27.722Z,1001.3
2022-08-20T16:40:23.032Z,1001.4
2022-08-20T16:43:13.896Z,1001.4
2022-08-20T16:46:06.886Z,1001.6
2022-08-20T16:49:02.448Z,1001.7
2022-08-20T16:51:55.987Z,1002
2022-08-20T16:54:44.792Z,1002.2
2022-08-20T16:57:32.907Z,1002.3
2022-08-20T17:00:21.044Z,1002.2
2022-08-20T17:03:11.168Z,1002.2
2022-08-20T17:06:09.244Z,1002.1
2022-08-20T17:09:04.568Z,1002
2022-08-20T17:11:56.715Z,1002.1
2022-08-20T17:14:59.582Z,1002.1
2022-08-20T17:17:48.797Z,1002.2
2022-08-20T17:20:38.490Z,1002.2
2022-08-20T17:23:30.545Z,1002.3
2022-08-20T17:26:21.005Z,1002.2
2022-08-20T17:29:14.778Z,1002.2
2022-08-20T17:32:05.903Z,1002.2
2022-08-20T17:35:01.896Z,1002.2
2022-08-20T17:37:50.672Z,1002.1
2022-08-20T17:40:43.127Z,1001.9
2022-08-20T17:43:31.763Z,1001.8
2022-08-20T17:46:20.039Z,1001.9
2022-08-20T17:49:09.213Z,1002.1
2022-08-20T17:52:02.797Z,1002.1
2022-08-20T17:54:57.903Z,1002.1
2022-08-20T17:57:47.857Z,1002.2
2022-08-20T18:00:41.749Z,1002.2
2022-08-20T18:03:30.523Z,1002.2
2022-08-20T18:06:18.423Z,1002.2
2022-08-20T18:09:15.034Z,1002.2
2022-08-20T18:12:29.287Z,1002.3
2022-08-20T18:15:26.268Z,1002.2
2022-08-20T18:18:17.787Z,1002.3
2022-08-20T18:21:16.070Z,1002.3
2022-08-20T18:24:33.338Z,1002.5
2022-08-20T18:27:28.707Z,1002.5
2022-08-20T18:30:23.882Z,1002.6
2022-08-20T18:33:13.003Z,1002.7
2022-08-20T18:36:12.391Z,1002.6
2022-08-20T18:39:11.539Z,1002.7
2022-08-20T18:42:11.806Z,1002.7
2022-08-20T18:45:11.138Z,1002.6
2022-08-20T18:48:00.520Z,1002.6
2022-08-20T18:50:50.351Z,1002.5
2022-08-20T18:53:41.453Z,1002.5
2022-08-20T18:56:33.663Z,1002.6
2022-08-20T18:59:25.918Z,1002.6
2022-08-20T19:02:16.496Z,1002.6
2022-08-20T19:05:09.112Z,1002.5
2022-08-20T19:07:58.334Z,1002.4
2022-08-20T19:10:48.638Z,1002.4
2022-08-20T19:13:47.993Z,1002.4
2022-08-20T19:16:54.523Z,1002.4
2022-08-20T19:19:47.849Z,1002.3
2022-08-20T19:22:45.000Z,1002.3
2022-08-20T19:25:36.037Z,1002.4
2022-08-20T19:28:33.354Z,1002.3
2022-08-20T19:31:28.748Z,1002.4
2022-08-20T19:34:22.282Z,1002.4
2022-08-20T19:37:34.780Z,1002.4
2022-08-20T19:40:30.791Z,1002.4
2022-08-20T19:43:21.879Z,1002.3
2022-08-20T19:46:09.569Z,1002.4
2022-08-20T19:49:00.536Z,1002.3
2022-08-20T19:52:02.901Z,1002.2
2022-08-20T19:55:06.241Z,1002.3
2022-08-20T19:58:06.539Z,1002.1
2022-08-20T20:01:00.060Z,1002.1
2022-08-20T20:03:49.959Z,1002.2
2022-08-20T20:06:44.208Z,1002.2
2022-08-20T20:09:34.727Z,1002.2
2022-08-20T20:12:26.795Z,1002.2
2022-08-20T20:15:17.529Z,1002.2
2022-08-20T20:18:06.199Z,1002.1
2022-08-20T20:20:57.218Z,1002
2022-08-20T20:23:57.694Z,1002.1
2022-08-20T20:26:46.720Z,1002.1
2022-08-20T20:29:35.308Z,1002.2
2022-08-20T20:32:23.235Z,1002.1
2022-08-20T20:35:11.801Z,1002.2
2022-08-20T20:38:12.373Z,1002.2
2022-08-20T20:41:11.542Z,1002.2
2022-08-20T20:44:06.257Z,1002.2
2022-08-20T20:47:05.557Z,1002.1
2022-08-20T20:50:04.587Z,1002
2022-08-20T20:52:56.361Z,1002.1
2022-08-20T20:55:44.191Z,1002
2022-08-20T20:58:41.529Z,1002
2022-08-20T21:01:50.021Z,1002
2022-08-20T21:04:42.334Z,1002.1
2022-08-20T21:07:33.233Z,1002.1
2022-08-20T21:10:31.181Z,1002.1
2022-08-20T21:13:22.230Z,1002
2022-08-20T21:16:10.089Z,1001.9
2022-08-20T21:18:57.965Z,1002
2022-08-20T21:21:46.152Z,1002
2022-08-20T21:24:33.825Z,1002
2022-08-20T21:27:21.502Z,1001.9
2022-08-20T21:30:12.695Z,1002
2022-08-20T21:33:01.760Z,1002
2022-08-20T21:35:49.499Z,1002
2022-08-20T21:38:37.188Z,1002.1
2022-08-20T21:41:29.662Z,1002.1
2022-08-20T21:44:19.779Z,1002
2022-08-20T21:47:12.579Z,1002.1
2022-08-20T21:50:00.264Z,1002.1
2022-08-20T21:52:55.121Z,1002.1
2022-08-20T21:55:49.147Z,1002.1
2022-08-20T21:58:36.957Z,1002.1
2022-08-20T22:01:25.305Z,1002.1
2022-08-20T22:04:13.418Z,1002.1
2022-08-20T22:07:01.367Z,1002
2022-08-20T22:09:49.718Z,1001.9
2022-08-20T22:12:37.477Z,1002.1
2022-08-20T22:15:25.059Z,1002
2022-08-20T22:18:12.776Z,1002.1
2022-08-20T22:21:02.654Z,1002.1
2022-08-20T22:23:55.110Z,1002.1
2022-08-20T22:26:44.574Z,1002
2022-08-20T22:29:32.677Z,1002
2022-08-20T22:32:20.498Z,1002.1
2022-08-20T22:35:22.041Z,1002.2
2022-08-20T22:38:09.644Z,1002.2
2022-08-20T22:40:57.637Z,1002.3
2022-08-20T22:43:55.617Z,1002.2
2022-08-20T22:46:48.040Z,1002.3
2022-08-20T22:49:41.761Z,1002.3
2022-08-20T22:52:30.029Z,1002.4
2022-08-20T22:55:18.712Z,1002.4
2022-08-20T22:58:07.687Z,1002.4
2022-08-20T23:00:58.250Z,1002.4
2022-08-20T23:03:49.329Z,1002.5
2022-08-20T23:06:36.977Z,1002.5
2022-08-20T23:09:24.748Z,1002.5
2022-08-20T23:12:13.221Z,1002.6
2022-08-20T23:15:00.942Z,1002.5
2022-08-20T23:17:49.890Z,1002.5
2022-08-20T23:20:39.349Z,1002.5
2022-08-20T23:23:31.202Z,1002.5
2022-08-20T23:26:19.222Z,1002.5
2022-08-20T23:29:08.017Z,1002.4
2022-08-20T23:31:57.733Z,1002.5
2022-08-20T23:34:45.503Z,1002.5
2022-08-20T23:37:33.093Z,1002.5
2022-08-20T23:40:27.962Z,1002.5
2022-08-20T23:43:17.174Z,1002.4
2022-08-20T23:46:05.214Z,1002.4
2022-08-20T23:48:54.270Z,1002.3
2022-08-20T23:51:41.923Z,1002.4
2022-08-20T23:54:29.578Z,1002.3
2022-08-20T23:57:20.981Z,1002.3
